Monday, November 18, 2019, 10:38 PM GMT
Back to Local

CWIT, Saint Clothilde Automated Reporting Station

Location: , , Canada Lat: 45.167
Local Time: 10:38 PM GMT (22:38 GMT) Lon: -73.683
Time Zone: GMT Elev: 170 ft

Show me the last for .
Show Decoded

2019-11-18 22:00 METAR CWIT 182200Z AUTO 04004KT M02/M07 RMK AO1 SOG 09 6015 SLP111 T10171073 =
2019-11-18 21:00 METAR CWIT 182100Z AUTO 04004KT M02/M07 RMK AO1 SOG 09 6020 SLP116 T10171074 =
2019-11-18 20:00 METAR CWIT 182000Z AUTO 04005KT M02/M08 RMK AO1 SOG 09 8021 SLP119 T10151076 =
2019-11-18 19:00 METAR CWIT 181900Z AUTO 04004KT M02/M08 RMK AO1 SOG 09 7024 SLP126 T10211077 =
2019-11-18 18:00 METAR CWIT 181800Z AUTO 02003KT M03/M08 RMK AO1 SOG 09 6023 SLP136 T10251077 =
2019-11-18 17:00 METAR CWIT 181700Z AUTO 04003KT M03/M08 RMK AO1 SOG 09 8025 SLP140 T10321082 =
2019-11-18 16:00 METAR CWIT 181600Z AUTO 04003KT M05/M09 RMK AO1 SOG 09 8020 SLP150 T10471091 =
2019-11-18 15:00 METAR CWIT 181500Z AUTO 03003KT M06/M10 RMK AO1 SOG 09 8013 SLP159 T10581101 =
2019-11-18 14:00 METAR CWIT 181400Z AUTO 01003KT M07/M11 RMK AO1 SOG 04 8008 SLP166 T10741107 =
2019-11-18 13:00 METAR CWIT 181300Z AUTO 00000KT M12/M13 RMK AO1 SOG 04 6006 SLP171 T11201131 =
2019-11-18 12:00 METAR CWIT 181200Z AUTO 00000KT M13/M14 RMK AO1 SOG 05 6008 SLP173 T11321143 =
2019-11-18 11:00 METAR CWIT 181100Z AUTO 30001KT M12/M13 RMK AO1 SOG 05 8009 SLP174 T11171130 =
2019-11-18 10:00 METAR CWIT 181000Z AUTO 19001KT M10/M12 RMK AO1 SOG 05 6013 SLP177 T10971116 =
2019-11-18 09:00 METAR CWIT 180900Z AUTO 10001KT M10/M12 RMK AO1 SOG 05 6017 SLP180 T10961120 =
2019-11-18 08:00 METAR CWIT 180800Z AUTO 10002KT M10/M14 RMK AO1 SOG 04 7022 SLP182 T11031138 =
2019-11-18 07:00 METAR CWIT 180700Z AUTO 10001KT M10/M13 RMK AO1 SOG 05 8021 SLP189 T10981134 =
2019-11-18 06:00 METAR CWIT 180600Z AUTO 00000KT M11/M14 RMK AO1 SOG 05 8018 SLP198 T11121135 =
2019-11-18 05:00 METAR CWIT 180500Z AUTO 00000KT M11/M13 RMK AO1 SOG 04 7017 SLP205 T11051133 =
2019-11-18 04:00 METAR CWIT 180400Z AUTO 00000KT M10/M13 RMK AO1 SOG 04 6019 SLP211 T11011134 =
2019-11-18 03:00 METAR CWIT 180300Z AUTO 09002KT M10/M14 RMK AO1 SOG 04 6023 SLP216 T10961136 =
2019-11-18 02:00 METAR CWIT 180200Z AUTO 12002KT M09/M14 RMK AO1 SOG 04 8023 SLP222 T10941138 =
2019-11-18 01:00 METAR CWIT 180100Z AUTO 11003KT M08/M14 RMK AO1 SOG 04 8020 SLP231 T10751141 =
2019-11-18 00:00 METAR CWIT 180000Z AUTO 10003KT M07/M13 RMK AO1 SOG 03 8015 SLP240 T10651134 =
2019-11-17 23:00 METAR CWIT 172300Z AUTO 09003KT M06/M13 RMK AO1 SOG 04 7014 SLP246 T10621131 =

Support USWX by starting your Amazon purchase here.